Time;durP1;ratioP1;P1;durP2;ratioP2;P2;SDS_P1;SDS_P2;PMS_P1;PMS_P2;Temp;Humidity;BMP_temperature;BMP_pressure;BME280_temperature;BME280_humidity;BME280_pressure;Samples;Min_cycle;Max_cycle;Signal;HPM_P1;HPM_P2
2021/08/16 00:00:21;;;;;;;9.98;6.53;;;;;;;;;;5004906;28;20021;-40
2021/08/16 00:02:47;;;;;;;9.18;6.80;;;;;;;;;;5002690;28;20044;-44
2021/08/16 00:05:14;;;;;;;13.73;7.00;;;;;;;;;;5021237;28;20034;-41
2021/08/16 00:07:41;;;;;;;11.02;7.32;;;;;;;;;;5021190;28;20041;-40
2021/08/16 00:10:06;;;;;;;10.10;6.90;;;;;;;;;;5004176;28;20050;-41
2021/08/16 00:12:31;;;;;;;10.15;6.13;;;;;;;;;;5006397;28;20793;-38
2021/08/16 00:14:57;;;;;;;11.85;7.10;;;;;;;;;;5008055;28;20044;-41
2021/08/16 00:17:22;;;;;;;12.63;6.82;;;;;;;;;;5007368;28;20041;-44
2021/08/16 00:19:48;;;;;;;10.95;6.50;;;;;;;;;;5014113;28;20756;-42
2021/08/16 00:22:13;;;;;;;9.05;6.65;;;;;;;;;;5018883;28;20067;-42
2021/08/16 00:24:39;;;;;;;10.32;6.72;;;;;;;;;;5016392;28;20579;-42
2021/08/16 00:27:04;;;;;;;10.10;6.60;;;;;;;;;;5006059;28;20072;-41
2021/08/16 00:29:29;;;;;;;9.18;6.38;;;;;;;;;;5005039;28;20477;-43
2021/08/16 00:31:55;;;;;;;12.27;6.68;;;;;;;;;;5023960;28;20396;-41
2021/08/16 00:34:20;;;;;;;11.35;6.63;;;;;;;;;;5016375;28;20672;-37
2021/08/16 00:36:45;;;;;;;9.57;6.50;;;;;;;;;;5007739;28;20109;-41
2021/08/16 00:39:11;;;;;;;13.52;6.63;;;;;;;;;;5022839;28;20025;-41
2021/08/16 00:41:39;;;;;;;11.52;7.35;;;;;;;;;;5027431;28;20025;-38
2021/08/16 00:44:06;;;;;;;11.30;6.78;;;;;;;;;;5027329;28;20024;-39
2021/08/16 00:46:32;;;;;;;9.27;6.35;;;;;;;;;;5017313;28;20033;-41
2021/08/16 00:48:58;;;;;;;8.15;6.25;;;;;;;;;;5007172;28;20031;-41
2021/08/16 00:51:25;;;;;;;9.30;6.18;;;;;;;;;;5006470;28;20033;-44
2021/08/16 00:53:52;;;;;;;16.48;6.65;;;;;;;;;;4997388;28;20038;-43
2021/08/16 00:56:17;;;;;;;11.60;7.40;;;;;;;;;;5021556;28;20033;-43
2021/08/16 00:58:43;;;;;;;8.57;6.03;;;;;;;;;;5026849;28;20033;-44
2021/08/16 01:01:08;;;;;;;10.90;6.38;;;;;;;;;;5026463;28;20025;-43
2021/08/16 01:03:33;;;;;;;12.80;6.80;;;;;;;;;;5026544;28;20022;-42
2021/08/16 01:05:59;;;;;;;10.43;6.57;;;;;;;;;;5027188;28;20025;-40
2021/08/16 01:08:25;;;;;;;8.90;6.13;;;;;;;;;;5016581;28;20633;-41
2021/08/16 01:10:51;;;;;;;8.50;6.05;;;;;;;;;;5006897;28;20034;-41
2021/08/16 01:13:18;;;;;;;10.57;6.55;;;;;;;;;;5006935;28;20025;-43
2021/08/16 01:16:04;;;;;;;9.80;6.63;;;;;;;;;;5006185;28;20508;-43
2021/08/16 01:18:32;;;;;;;10.98;6.57;;;;;;;;;;5008923;28;20034;-43
2021/08/16 01:21:05;;;;;;;12.40;6.05;;;;;;;;;;5010454;28;20034;-44
2021/08/16 01:23:31;;;;;;;8.80;6.38;;;;;;;;;;5004718;28;20025;-40
2021/08/16 01:25:57;;;;;;;10.50;6.05;;;;;;;;;;5006601;28;20048;-39
2021/08/16 01:28:23;;;;;;;10.95;6.13;;;;;;;;;;5006283;28;20038;-41
2021/08/16 01:30:53;;;;;;;9.32;7.35;;;;;;;;;;5006273;28;20028;-43
2021/08/16 01:33:19;;;;;;;12.57;6.70;;;;;;;;;;5008099;28;20040;-38
2021/08/16 01:35:44;;;;;;;11.43;6.35;;;;;;;;;;5016335;28;20807;-41
2021/08/16 01:38:10;;;;;;;10.10;6.00;;;;;;;;;;5012146;28;20029;-40
2021/08/16 01:40:35;;;;;;;8.95;6.57;;;;;;;;;;5026454;28;20404;-37
2021/08/16 01:43:04;;;;;;;11.57;5.82;;;;;;;;;;5011494;28;20080;-42
2021/08/16 01:45:30;;;;;;;11.23;5.95;;;;;;;;;;5025171;28;20025;-35
2021/08/16 01:47:56;;;;;;;12.02;6.43;;;;;;;;;;5026201;28;20064;-37
2021/08/16 01:50:21;;;;;;;9.50;6.40;;;;;;;;;;5025840;28;20033;-39
2021/08/16 01:52:47;;;;;;;10.40;6.18;;;;;;;;;;5025648;28;20036;-35
2021/08/16 01:55:12;;;;;;;9.73;6.60;;;;;;;;;;5025666;28;20036;-35
2021/08/16 01:57:38;;;;;;;10.27;6.65;;;;;;;;;;5025750;28;20061;-36
2021/08/16 02:00:04;;;;;;;13.02;7.25;;;;;;;;;;5025842;28;20029;-34
2021/08/16 02:02:29;;;;;;;10.90;6.53;;;;;;;;;;5025161;28;20021;-34
2021/08/16 02:04:55;;;;;;;8.25;6.10;;;;;;;;;;5025204;28;20052;-38
2021/08/16 02:07:20;;;;;;;9.40;6.78;;;;;;;;;;5016705;28;20520;-38
2021/08/16 02:09:45;;;;;;;15.02;6.80;;;;;;;;;;5024309;28;20112;-36
2021/08/16 02:12:11;;;;;;;9.45;6.55;;;;;;;;;;5007184;28;20028;-36
2021/08/16 02:14:37;;;;;;;10.50;6.70;;;;;;;;;;5005371;28;20030;-35
2021/08/16 02:17:02;;;;;;;9.32;6.47;;;;;;;;;;5005453;28;20061;-36
2021/08/16 02:19:29;;;;;;;9.75;6.63;;;;;;;;;;5009282;28;20500;-35
2021/08/16 02:21:54;;;;;;;11.95;7.18;;;;;;;;;;5024931;28;20032;-35
2021/08/16 02:24:19;;;;;;;11.40;6.65;;;;;;;;;;5025340;28;20025;-36
2021/08/16 02:26:44;;;;;;;8.35;6.45;;;;;;;;;;5016709;28;20113;-34
2021/08/16 02:29:12;;;;;;;9.40;6.22;;;;;;;;;;4997631;28;20435;-34
2021/08/16 02:31:38;;;;;;;8.90;6.18;;;;;;;;;;5002583;28;20021;-34
2021/08/16 02:34:03;;;;;;;10.45;5.95;;;;;;;;;;5009276;28;20082;-36
2021/08/16 02:36:29;;;;;;;10.75;6.68;;;;;;;;;;5008246;28;20034;-35
2021/08/16 02:38:54;;;;;;;11.98;5.70;;;;;;;;;;5018065;28;20144;-34
2021/08/16 02:41:19;;;;;;;8.82;6.13;;;;;;;;;;5020518;28;20087;-36
2021/08/16 02:43:45;;;;;;;10.25;6.15;;;;;;;;;;5002091;28;20044;-34
2021/08/16 02:46:10;;;;;;;10.73;6.05;;;;;;;;;;5004797;28;20650;-35
2021/08/16 02:48:35;;;;;;;8.90;5.70;;;;;;;;;;5001363;28;20399;-35
2021/08/16 02:51:01;;;;;;;8.65;6.38;;;;;;;;;;5004867;28;20045;-34
2021/08/16 02:53:26;;;;;;;10.13;5.75;;;;;;;;;;5005311;28;20053;-36
2021/08/16 02:55:51;;;;;;;9.02;5.35;;;;;;;;;;5005020;28;20463;-38
2021/08/16 02:58:17;;;;;;;9.57;6.05;;;;;;;;;;5005194;28;20369;-34
2021/08/16 03:00:42;;;;;;;8.90;6.28;;;;;;;;;;5004182;28;20029;-36
2021/08/16 03:03:07;;;;;;;9.38;6.03;;;;;;;;;;5004985;28;20042;-34
2021/08/16 03:05:33;;;;;;;10.50;6.40;;;;;;;;;;5004915;28;20029;-36
2021/08/16 03:07:58;;;;;;;8.18;5.32;;;;;;;;;;5009477;28;20033;-34
2021/08/16 03:10:24;;;;;;;9.63;5.63;;;;;;;;;;5020122;28;20957;-33
2021/08/16 03:12:49;;;;;;;8.40;5.65;;;;;;;;;;5004436;28;20646;-37
2021/08/16 03:15:15;;;;;;;10.35;6.15;;;;;;;;;;5004783;28;20014;-37
2021/08/16 03:17:40;;;;;;;9.25;5.63;;;;;;;;;;5004501;28;20650;-36
2021/08/16 03:20:07;;;;;;;8.52;6.30;;;;;;;;;;5006749;28;20400;-36
2021/08/16 03:22:32;;;;;;;8.35;6.00;;;;;;;;;;5003655;28;20049;-34
2021/08/16 03:24:57;;;;;;;10.10;6.93;;;;;;;;;;5004727;28;20053;-34
2021/08/16 03:27:23;;;;;;;8.73;5.70;;;;;;;;;;4999977;28;20033;-36
2021/08/16 03:29:48;;;;;;;8.80;6.10;;;;;;;;;;5005049;28;20066;-34
2021/08/16 03:32:14;;;;;;;11.40;5.97;;;;;;;;;;5003164;28;20026;-39
2021/08/16 03:34:40;;;;;;;8.23;5.93;;;;;;;;;;5015565;28;20025;-36
2021/08/16 03:37:05;;;;;;;10.27;6.05;;;;;;;;;;5009003;28;20027;-34
2021/08/16 03:39:31;;;;;;;10.85;6.07;;;;;;;;;;5006336;28;20030;-37
2021/08/16 03:41:56;;;;;;;8.80;6.03;;;;;;;;;;5002802;28;20064;-34
2021/08/16 03:44:21;;;;;;;8.55;5.78;;;;;;;;;;5004469;28;20026;-37
2021/08/16 03:46:47;;;;;;;9.20;5.35;;;;;;;;;;5005136;28;20032;-34
2021/08/16 03:49:12;;;;;;;11.38;6.68;;;;;;;;;;5008264;28;20415;-39
2021/08/16 03:51:38;;;;;;;10.38;5.70;;;;;;;;;;5008216;28;20076;-35
2021/08/16 03:54:03;;;;;;;11.23;6.25;;;;;;;;;;5008167;28;20069;-37
2021/08/16 03:56:29;;;;;;;9.07;5.70;;;;;;;;;;5007519;28;20145;-34
2021/08/16 03:58:54;;;;;;;10.82;7.57;;;;;;;;;;5008519;28;20112;-37
2021/08/16 04:01:20;;;;;;;9.85;5.75;;;;;;;;;;5007680;28;20026;-36
2021/08/16 04:03:45;;;;;;;9.95;5.97;;;;;;;;;;5007860;28;20045;-35
2021/08/16 04:06:10;;;;;;;9.52;5.68;;;;;;;;;;5007870;28;20029;-35
2021/08/16 04:08:40;;;;;;;16.63;7.82;;;;;;;;;;5019257;28;20048;-39
2021/08/16 04:11:08;;;;;;;13.60;6.95;;;;;;;;;;5016121;28;20835;-34
2021/08/16 04:13:34;;;;;;;7.85;5.57;;;;;;;;;;5015632;28;20512;-35
2021/08/16 04:15:59;;;;;;;10.32;5.38;;;;;;;;;;5017422;28;20021;-35
2021/08/16 04:18:25;;;;;;;7.68;5.32;;;;;;;;;;5010744;28;20496;-37
2021/08/16 04:20:50;;;;;;;11.20;5.80;;;;;;;;;;5024025;28;20028;-35
2021/08/16 04:23:15;;;;;;;8.27;5.47;;;;;;;;;;5018223;28;20055;-33
2021/08/16 04:25:41;;;;;;;7.88;5.25;;;;;;;;;;5015690;28;20536;-35
2021/08/16 04:28:06;;;;;;;10.25;6.40;;;;;;;;;;5016432;28;20033;-35
2021/08/16 04:30:32;;;;;;;11.20;7.22;;;;;;;;;;5010449;28;20026;-34
2021/08/16 04:32:57;;;;;;;10.60;6.10;;;;;;;;;;5023559;28;20033;-34
2021/08/16 04:35:23;;;;;;;10.30;5.78;;;;;;;;;;5021839;28;20073;-34
2021/08/16 04:37:48;;;;;;;13.20;5.30;;;;;;;;;;5013917;28;20029;-33
2021/08/16 04:40:14;;;;;;;9.82;4.90;;;;;;;;;;5015669;28;20033;-38
2021/08/16 04:42:40;;;;;;;9.32;5.00;;;;;;;;;;5006370;28;20038;-34
2021/08/16 04:45:08;;;;;;;8.20;4.97;;;;;;;;;;5007666;28;20030;-34
2021/08/16 04:47:34;;;;;;;9.70;5.18;;;;;;;;;;5007045;28;20452;-34
2021/08/16 04:49:59;;;;;;;8.43;5.88;;;;;;;;;;5007347;28;20038;-35
2021/08/16 04:52:25;;;;;;;7.80;5.05;;;;;;;;;;5006610;28;20096;-33
2021/08/16 04:54:51;;;;;;;9.13;5.15;;;;;;;;;;5019552;28;20029;-33
2021/08/16 04:57:37;;;;;;;10.20;5.38;;;;;;;;;;5024726;28;20029;-35
2021/08/16 05:00:05;;;;;;;9.40;4.97;;;;;;;;;;5004011;28;20030;-34
2021/08/16 05:02:30;;;;;;;11.52;4.72;;;;;;;;;;5007022;28;20037;-37
2021/08/16 05:05:04;;;;;;;7.63;5.05;;;;;;;;;;5019956;28;20922;-35
2021/08/16 05:07:29;;;;;;;9.63;4.90;;;;;;;;;;5021268;28;20152;-36
2021/08/16 05:09:54;;;;;;;9.75;4.97;;;;;;;;;;5013697;28;20770;-35
2021/08/16 05:12:20;;;;;;;9.82;4.97;;;;;;;;;;5019264;28;20141;-33
2021/08/16 05:14:45;;;;;;;8.82;4.43;;;;;;;;;;5023138;28;20104;-33
2021/08/16 05:17:11;;;;;;;12.60;5.10;;;;;;;;;;5008245;28;20071;-36
2021/08/16 05:19:37;;;;;;;8.65;4.68;;;;;;;;;;5005346;28;20033;-33
2021/08/16 05:22:08;;;;;;;7.90;4.32;;;;;;;;;;5004483;28;20686;-35
2021/08/16 05:24:34;;;;;;;9.15;4.53;;;;;;;;;;5010597;28;20036;-36
2021/08/16 05:27:00;;;;;;;8.88;4.82;;;;;;;;;;5015632;28;20033;-33
2021/08/16 05:29:25;;;;;;;10.55;5.10;;;;;;;;;;5020731;28;20057;-33
2021/08/16 05:31:51;;;;;;;8.65;4.30;;;;;;;;;;5007724;28;20570;-36
2021/08/16 05:34:16;;;;;;;8.07;4.55;;;;;;;;;;5006821;28;20029;-34
2021/08/16 05:36:41;;;;;;;7.82;4.05;;;;;;;;;;5004918;28;20513;-34
2021/08/16 05:39:07;;;;;;;8.10;4.70;;;;;;;;;;5012673;28;20432;-34
2021/08/16 05:41:32;;;;;;;7.25;4.20;;;;;;;;;;5009002;28;20532;-36
2021/08/16 05:43:57;;;;;;;9.23;4.60;;;;;;;;;;5017624;28;20067;-36
2021/08/16 05:46:23;;;;;;;7.35;4.78;;;;;;;;;;5012508;28;20021;-39
2021/08/16 05:48:48;;;;;;;6.82;3.75;;;;;;;;;;5011276;28;20088;-35
2021/08/16 05:51:14;;;;;;;8.15;3.88;;;;;;;;;;5011350;28;20536;-40
2021/08/16 05:53:39;;;;;;;6.55;3.80;;;;;;;;;;5023719;28;20068;-37
2021/08/16 05:56:04;;;;;;;8.93;3.80;;;;;;;;;;5018720;28;20045;-36
2021/08/16 05:58:30;;;;;;;7.57;3.60;;;;;;;;;;4995723;28;20032;-36
2021/08/16 06:00:55;;;;;;;6.60;3.50;;;;;;;;;;4996245;28;20052;-36
2021/08/16 06:03:22;;;;;;;6.57;3.95;;;;;;;;;;5010012;28;20143;-35
2021/08/16 06:05:47;;;;;;;6.65;3.72;;;;;;;;;;5016884;28;20053;-39
2021/08/16 06:08:13;;;;;;;7.10;3.63;;;;;;;;;;5021062;28;20068;-36
2021/08/16 06:10:38;;;;;;;7.47;3.38;;;;;;;;;;5016758;28;20021;-40
2021/08/16 06:13:04;;;;;;;8.60;3.80;;;;;;;;;;5022819;28;20522;-36
2021/08/16 06:15:30;;;;;;;7.13;3.45;;;;;;;;;;5017183;28;20037;-38
2021/08/16 06:17:55;;;;;;;6.95;3.38;;;;;;;;;;5022602;28;20029;-39
2021/08/16 06:20:21;;;;;;;7.20;3.42;;;;;;;;;;5011576;28;20029;-35
2021/08/16 06:22:46;;;;;;;8.98;3.58;;;;;;;;;;4997032;28;20119;-39
2021/08/16 06:25:11;;;;;;;5.22;3.13;;;;;;;;;;5015831;28;20112;-38
2021/08/16 06:27:37;;;;;;;7.85;3.70;;;;;;;;;;5009467;28;20029;-38
2021/08/16 06:30:02;;;;;;;7.35;3.88;;;;;;;;;;5023494;28;20025;-38
2021/08/16 06:32:29;;;;;;;6.53;3.70;;;;;;;;;;5020508;28;20063;-36
2021/08/16 06:34:55;;;;;;;8.05;3.20;;;;;;;;;;5018805;28;20538;-37
2021/08/16 06:37:20;;;;;;;7.50;3.70;;;;;;;;;;5006003;28;20484;-36
2021/08/16 06:39:46;;;;;;;6.63;3.42;;;;;;;;;;5011668;28;20029;-38
2021/08/16 06:42:11;;;;;;;6.80;3.40;;;;;;;;;;5023055;28;20739;-41
2021/08/16 06:44:37;;;;;;;6.85;3.33;;;;;;;;;;5023269;28;20021;-37
2021/08/16 06:47:03;;;;;;;8.40;3.78;;;;;;;;;;5022741;28;20030;-36
2021/08/16 06:49:28;;;;;;;7.00;3.15;;;;;;;;;;5022736;28;20061;-37
2021/08/16 06:51:54;;;;;;;6.30;3.40;;;;;;;;;;5022989;28;20613;-36
2021/08/16 06:54:22;;;;;;;6.07;3.50;;;;;;;;;;5022934;28;20033;-38
2021/08/16 06:56:48;;;;;;;7.45;3.50;;;;;;;;;;5023032;28;20034;-35
2021/08/16 06:59:13;;;;;;;5.38;3.05;;;;;;;;;;5023342;28;20034;-38
2021/08/16 07:01:38;;;;;;;7.53;3.30;;;;;;;;;;5022537;28;20029;-39
2021/08/16 07:04:04;;;;;;;6.53;3.30;;;;;;;;;;5023116;28;20139;-40
2021/08/16 07:06:29;;;;;;;6.93;3.67;;;;;;;;;;5008498;28;20654;-38
2021/08/16 07:08:55;;;;;;;5.93;3.25;;;;;;;;;;5018635;28;20033;-37
2021/08/16 07:11:20;;;;;;;7.28;3.30;;;;;;;;;;5012920;28;20033;-35
2021/08/16 07:13:46;;;;;;;6.68;3.60;;;;;;;;;;5005058;28;20202;-36
2021/08/16 07:16:11;;;;;;;5.88;3.08;;;;;;;;;;5004630;28;20029;-39
2021/08/16 07:18:36;;;;;;;7.85;4.50;;;;;;;;;;5004032;28;20121;-35
2021/08/16 07:21:03;;;;;;;9.25;3.50;;;;;;;;;;5005566;28;20041;-36
2021/08/16 07:23:29;;;;;;;7.38;3.15;;;;;;;;;;5008522;28;20519;-35
2021/08/16 07:25:58;;;;;;;7.50;3.42;;;;;;;;;;5008839;28;20022;-36
2021/08/16 07:28:28;;;;;;;6.30;3.47;;;;;;;;;;5008852;28;20034;-35
2021/08/16 07:30:54;;;;;;;6.18;3.00;;;;;;;;;;5015961;28;20087;-35
2021/08/16 07:33:20;;;;;;;6.07;3.10;;;;;;;;;;5026459;28;20825;-36
2021/08/16 07:35:45;;;;;;;4.88;2.72;;;;;;;;;;5015719;28;20028;-35
2021/08/16 07:38:11;;;;;;;5.93;2.97;;;;;;;;;;5014635;28;20507;-35
2021/08/16 07:40:36;;;;;;;5.95;3.10;;;;;;;;;;5016433;28;20025;-36
2021/08/16 07:43:01;;;;;;;7.43;3.20;;;;;;;;;;5025818;28;20033;-37
2021/08/16 07:45:27;;;;;;;6.68;3.10;;;;;;;;;;5026110;28;20018;-38
2021/08/16 07:47:53;;;;;;;5.43;2.88;;;;;;;;;;5025730;28;20029;-39
2021/08/16 07:50:19;;;;;;;6.20;3.00;;;;;;;;;;5026641;28;20087;-37
2021/08/16 07:52:44;;;;;;;6.13;3.33;;;;;;;;;;5025845;28;20025;-36
2021/08/16 07:55:10;;;;;;;4.80;2.80;;;;;;;;;;5026224;28;20018;-37
2021/08/16 07:57:36;;;;;;;7.50;3.53;;;;;;;;;;5025974;28;20531;-37
2021/08/16 08:00:08;;;;;;;6.63;3.53;;;;;;;;;;5025283;28;20032;-37
2021/08/16 08:02:46;;;;;;;5.13;2.88;;;;;;;;;;5026061;28;20541;-35
2021/08/16 08:05:14;;;;;;;5.97;3.38;;;;;;;;;;5025166;28;20037;-38
2021/08/16 08:07:41;;;;;;;6.80;3.22;;;;;;;;;;5025772;28;20113;-37
2021/08/16 08:10:07;;;;;;;6.10;2.90;;;;;;;;;;5024306;28;20017;-36
2021/08/16 08:12:33;;;;;;;6.40;3.25;;;;;;;;;;5016162;28;20519;-36
2021/08/16 08:14:58;;;;;;;6.88;3.17;;;;;;;;;;5012477;28;20021;-37
2021/08/16 08:17:23;;;;;;;6.57;3.28;;;;;;;;;;5025156;28;20108;-38
2021/08/16 08:19:50;;;;;;;7.40;3.20;;;;;;;;;;5025873;28;20563;-35
2021/08/16 08:22:17;;;;;;;5.32;3.33;;;;;;;;;;5012149;28;20030;-37
2021/08/16 08:24:43;;;;;;;5.50;3.40;;;;;;;;;;5008080;28;20037;-38
2021/08/16 08:27:08;;;;;;;7.45;3.17;;;;;;;;;;5007501;28;20037;-38
2021/08/16 08:29:33;;;;;;;6.60;3.10;;;;;;;;;;5006910;28;20791;-35
2021/08/16 08:31:58;;;;;;;6.75;3.00;;;;;;;;;;5006850;28;20018;-35
2021/08/16 08:34:24;;;;;;;5.28;3.40;;;;;;;;;;5006506;28;20025;-36
2021/08/16 08:36:49;;;;;;;7.90;3.50;;;;;;;;;;5007179;28;20389;-36
2021/08/16 08:39:14;;;;;;;5.88;3.08;;;;;;;;;;5007703;28;20033;-36
2021/08/16 08:41:40;;;;;;;6.68;3.22;;;;;;;;;;5006645;28;20074;-37
2021/08/16 08:44:10;;;;;;;7.07;2.92;;;;;;;;;;5015921;28;20041;-36
2021/08/16 08:46:37;;;;;;;7.78;3.35;;;;;;;;;;5008507;28;20130;-36
2021/08/16 08:49:03;;;;;;;7.80;3.22;;;;;;;;;;5010543;28;20080;-37
2021/08/16 08:51:28;;;;;;;7.05;3.15;;;;;;;;;;5006841;28;20029;-38
2021/08/16 08:53:54;;;;;;;5.03;2.60;;;;;;;;;;5009619;28;20037;-37
2021/08/16 08:56:19;;;;;;;6.88;3.10;;;;;;;;;;5014956;28;20071;-35
2021/08/16 08:58:45;;;;;;;6.60;3.17;;;;;;;;;;5019227;28;20025;-37
2021/08/16 09:01:10;;;;;;;7.53;3.22;;;;;;;;;;5013521;28;20767;-37
2021/08/16 09:03:46;;;;;;;6.28;3.03;;;;;;;;;;5025099;28;20665;-36
2021/08/16 09:06:16;;;;;;;7.68;3.42;;;;;;;;;;5024837;28;20087;-37
2021/08/16 09:08:41;;;;;;;6.38;3.10;;;;;;;;;;5019716;28;20849;-36
2021/08/16 09:11:09;;;;;;;11.23;3.50;;;;;;;;;;5011973;28;20124;-38
2021/08/16 09:13:35;;;;;;;5.53;3.50;;;;;;;;;;5021287;28;20032;-36
2021/08/16 09:16:09;;;;;;;5.85;2.97;;;;;;;;;;5023058;28;20483;-36
2021/08/16 09:18:34;;;;;;;6.75;3.05;;;;;;;;;;5020286;28;20055;-37
2021/08/16 09:21:00;;;;;;;7.00;3.33;;;;;;;;;;5014592;28;20489;-35
2021/08/16 09:23:26;;;;;;;5.85;3.28;;;;;;;;;;5024179;28;20110;-40
2021/08/16 09:25:55;;;;;;;6.38;2.95;;;;;;;;;;5010462;28;20022;-36
2021/08/16 09:28:31;;;;;;;5.15;2.55;;;;;;;;;;5002465;28;20022;-36
2021/08/16 09:31:15;;;;;;;7.03;3.35;;;;;;;;;;5000727;28;20084;-37
2021/08/16 09:33:54;;;;;;;6.75;2.95;;;;;;;;;;5020661;28;20547;-36
2021/08/16 09:36:19;;;;;;;6.05;2.80;;;;;;;;;;5021360;28;20040;-35
2021/08/16 09:38:44;;;;;;;6.38;2.80;;;;;;;;;;5016420;28;20528;-35
2021/08/16 09:41:25;;;;;;;6.22;2.80;;;;;;;;;;5024151;28;20037;-35
2021/08/16 09:43:52;;;;;;;5.30;3.15;;;;;;;;;;5023260;28;20025;-41
2021/08/16 09:46:18;;;;;;;7.13;2.97;;;;;;;;;;5023358;28;20559;-35
2021/08/16 09:48:55;;;;;;;6.18;2.97;;;;;;;;;;5024344;28;20035;-41
2021/08/16 09:51:22;;;;;;;5.70;2.72;;;;;;;;;;5019460;28;20034;-36
2021/08/16 09:53:48;;;;;;;8.13;2.90;;;;;;;;;;5016725;28;20053;-35
2021/08/16 09:56:17;;;;;;;5.75;3.05;;;;;;;;;;5017468;28;20084;-36
2021/08/16 09:58:42;;;;;;;8.40;2.90;;;;;;;;;;5023849;28;20029;-40
2021/08/16 10:01:08;;;;;;;7.97;2.35;;;;;;;;;;5023806;28;20585;-36
2021/08/16 10:03:36;;;;;;;6.82;3.10;;;;;;;;;;5023472;28;20029;-35
2021/08/16 10:06:02;;;;;;;5.70;2.55;;;;;;;;;;5023810;28;20026;-36
2021/08/16 10:08:28;;;;;;;7.05;2.92;;;;;;;;;;5020671;28;20029;-38
2021/08/16 10:10:56;;;;;;;5.88;2.80;;;;;;;;;;5016827;28;20408;-39
2021/08/16 10:13:22;;;;;;;6.28;2.72;;;;;;;;;;5023251;28;20025;-38
2021/08/16 10:15:51;;;;;;;7.32;3.00;;;;;;;;;;5023430;28;20025;-38
2021/08/16 10:18:24;;;;;;;6.05;2.63;;;;;;;;;;5023552;28;20037;-39
2021/08/16 10:20:50;;;;;;;5.85;2.95;;;;;;;;;;5011236;28;20107;-36
2021/08/16 10:23:21;;;;;;;4.72;2.53;;;;;;;;;;5023862;28;20658;-39
2021/08/16 10:25:48;;;;;;;6.18;2.60;;;;;;;;;;5023113;28;20029;-37
2021/08/16 10:28:23;;;;;;;5.85;2.70;;;;;;;;;;5022932;28;20067;-39
2021/08/16 10:30:48;;;;;;;9.40;2.80;;;;;;;;;;5023133;28;20025;-36
2021/08/16 10:33:13;;;;;;;6.72;2.78;;;;;;;;;;5016258;28;20028;-40
2021/08/16 10:35:40;;;;;;;6.47;2.78;;;;;;;;;;5014824;28;20065;-39
2021/08/16 10:38:08;;;;;;;5.13;2.50;;;;;;;;;;5015939;28;20108;-36
2021/08/16 10:40:40;;;;;;;5.78;2.65;;;;;;;;;;5020677;28;20030;-36
2021/08/16 10:43:10;;;;;;;5.68;2.55;;;;;;;;;;5022920;28;20029;-36
2021/08/16 10:45:47;;;;;;;5.30;2.75;;;;;;;;;;5022967;28;20389;-40
2021/08/16 10:48:27;;;;;;;5.38;2.40;;;;;;;;;;5020952;28;20072;-36
2021/08/16 10:51:14;;;;;;;6.28;2.70;;;;;;;;;;5020488;28;20104;-37
2021/08/16 10:53:55;;;;;;;5.00;2.70;;;;;;;;;;5015288;28;20065;-36
2021/08/16 10:56:23;;;;;;;5.25;2.47;;;;;;;;;;5017752;28;20108;-39
2021/08/16 10:58:49;;;;;;;5.60;2.60;;;;;;;;;;5022939;28;20064;-36
2021/08/16 11:01:35;;;;;;;8.23;2.88;;;;;;;;;;5022242;28;20033;-39
2021/08/16 11:04:03;;;;;;;4.97;2.70;;;;;;;;;;5022798;28;20044;-39
2021/08/16 11:06:30;;;;;;;5.90;2.50;;;;;;;;;;5022460;28;20176;-35
2021/08/16 11:09:05;;;;;;;6.85;2.70;;;;;;;;;;5020841;28;20032;-37
2021/08/16 11:11:34;;;;;;;5.63;2.38;;;;;;;;;;5015589;28;20661;-38
2021/08/16 11:14:07;;;;;;;6.47;2.40;;;;;;;;;;5023056;28;20029;-36
2021/08/16 11:16:33;;;;;;;5.05;2.25;;;;;;;;;;5022667;28;20051;-35
2021/08/16 11:18:58;;;;;;;6.57;2.50;;;;;;;;;;5022108;28;20140;-36
2021/08/16 11:21:25;;;;;;;7.90;2.70;;;;;;;;;;5011593;28;20040;-35
2021/08/16 11:23:58;;;;;;;7.53;2.85;;;;;;;;;;5022534;28;20029;-36
2021/08/16 11:26:25;;;;;;;6.50;2.33;;;;;;;;;;5022481;28;20033;-36
2021/08/16 11:28:50;;;;;;;6.38;2.40;;;;;;;;;;5021703;28;20033;-36
2021/08/16 11:31:16;;;;;;;5.72;2.50;;;;;;;;;;5021924;28;20087;-36
2021/08/16 11:33:41;;;;;;;6.35;2.80;;;;;;;;;;5017958;28;20068;-36
2021/08/16 11:36:12;;;;;;;5.47;2.22;;;;;;;;;;5017860;28;20041;-36
2021/08/16 11:38:40;;;;;;;6.80;2.95;;;;;;;;;;5011294;28;20029;-36
2021/08/16 11:41:11;;;;;;;4.75;2.60;;;;;;;;;;5008732;28;20080;-37
2021/08/16 11:43:37;;;;;;;6.38;2.67;;;;;;;;;;5004913;28;20037;-36
2021/08/16 11:46:16;;;;;;;6.85;2.60;;;;;;;;;;5000968;28;20033;-36
2021/08/16 11:48:50;;;;;;;5.55;2.33;;;;;;;;;;5003140;28;20041;-36
2021/08/16 11:51:16;;;;;;;7.20;2.75;;;;;;;;;;5009706;28;20483;-36
2021/08/16 11:53:43;;;;;;;5.43;2.45;;;;;;;;;;5002591;28;20036;-35
2021/08/16 11:56:09;;;;;;;4.53;2.38;;;;;;;;;;5016007;28;20026;-36
2021/08/16 11:58:39;;;;;;;7.30;2.20;;;;;;;;;;5021110;28;20029;-35
2021/08/16 12:01:06;;;;;;;5.82;2.53;;;;;;;;;;5022064;28;20037;-36
2021/08/16 12:03:33;;;;;;;5.97;2.50;;;;;;;;;;5021700;28;20087;-36
2021/08/16 12:05:59;;;;;;;6.25;2.70;;;;;;;;;;5022180;28;20029;-36
2021/08/16 12:08:24;;;;;;;4.78;2.10;;;;;;;;;;5023660;28;20065;-35
2021/08/16 12:10:50;;;;;;;4.88;2.55;;;;;;;;;;5018672;28;20053;-36
2021/08/16 12:13:21;;;;;;;6.95;2.40;;;;;;;;;;5026219;28;20017;-36
2021/08/16 12:15:46;;;;;;;5.63;2.40;;;;;;;;;;5017748;28;20611;-35
2021/08/16 12:18:13;;;;;;;4.47;2.30;;;;;;;;;;5025828;28;20113;-39
2021/08/16 12:20:51;;;;;;;5.38;2.70;;;;;;;;;;5024593;28;20132;-36
2021/08/16 12:23:35;;;;;;;5.65;2.45;;;;;;;;;;5025718;28;20029;-38
2021/08/16 12:26:03;;;;;;;4.32;2.15;;;;;;;;;;5025269;28;20037;-39
2021/08/16 12:28:43;;;;;;;8.00;2.72;;;;;;;;;;5025597;28;20021;-35
2021/08/16 12:31:16;;;;;;;5.55;2.45;;;;;;;;;;5013000;28;20087;-35
2021/08/16 12:34:01;;;;;;;5.22;2.58;;;;;;;;;;5024683;28;20026;-36
2021/08/16 12:36:36;;;;;;;5.30;2.80;;;;;;;;;;5017400;28;20057;-36
2021/08/16 12:39:13;;;;;;;4.85;2.20;;;;;;;;;;5023808;28;20040;-37
2021/08/16 12:41:40;;;;;;;6.18;2.95;;;;;;;;;;5025092;28;20036;-40
2021/08/16 12:44:18;;;;;;;5.88;2.55;;;;;;;;;;5025167;28;20098;-37
2021/08/16 12:46:44;;;;;;;6.45;2.80;;;;;;;;;;5023250;28;20034;-38
2021/08/16 12:49:20;;;;;;;5.97;2.63;;;;;;;;;;5024873;28;20032;-37
2021/08/16 12:51:45;;;;;;;6.65;2.92;;;;;;;;;;5019370;28;20040;-39
2021/08/16 12:54:10;;;;;;;8.05;3.15;;;;;;;;;;5014566;28;20022;-36
2021/08/16 12:56:36;;;;;;;6.45;2.85;;;;;;;;;;5022289;28;20029;-39
2021/08/16 12:59:01;;;;;;;6.93;2.80;;;;;;;;;;5025183;28;20029;-36
2021/08/16 13:01:26;;;;;;;7.45;2.53;;;;;;;;;;5023895;28;20075;-38
2021/08/16 13:03:53;;;;;;;6.65;2.38;;;;;;;;;;5024979;28;20596;-36
2021/08/16 13:06:19;;;;;;;6.68;3.08;;;;;;;;;;5024713;28;20033;-36
2021/08/16 13:08:44;;;;;;;6.57;2.53;;;;;;;;;;5023645;28;20715;-35
2021/08/16 13:11:11;;;;;;;6.47;2.97;;;;;;;;;;5018030;28;20029;-40
2021/08/16 13:13:37;;;;;;;6.55;2.63;;;;;;;;;;5024554;28;20033;-36
2021/08/16 13:16:03;;;;;;;6.00;2.88;;;;;;;;;;5016077;28;20033;-37
2021/08/16 13:18:28;;;;;;;5.90;2.80;;;;;;;;;;5023311;28;20429;-35
2021/08/16 13:20:56;;;;;;;5.40;2.80;;;;;;;;;;5024115;28;20838;-38
2021/08/16 13:23:22;;;;;;;5.90;2.38;;;;;;;;;;5024491;28;20029;-37
2021/08/16 13:25:47;;;;;;;6.25;2.30;;;;;;;;;;5021656;28;20037;-36
2021/08/16 13:28:12;;;;;;;6.07;2.58;;;;;;;;;;5024737;28;20528;-38
2021/08/16 13:30:38;;;;;;;7.18;2.80;;;;;;;;;;5023474;28;20033;-37
2021/08/16 13:33:03;;;;;;;5.65;2.80;;;;;;;;;;5024343;28;20036;-37
2021/08/16 13:35:28;;;;;;;6.57;2.85;;;;;;;;;;5020138;28;20025;-38
2021/08/16 13:37:54;;;;;;;8.60;2.50;;;;;;;;;;5022753;28;20075;-35
2021/08/16 13:40:19;;;;;;;4.85;2.22;;;;;;;;;;5008341;28;20028;-35
2021/08/16 13:42:45;;;;;;;5.25;2.35;;;;;;;;;;5024075;28;20033;-35
2021/08/16 13:45:10;;;;;;;6.13;2.67;;;;;;;;;;5022031;28;20108;-41
2021/08/16 13:47:36;;;;;;;7.55;2.42;;;;;;;;;;5023739;28;20029;-36
2021/08/16 13:50:01;;;;;;;5.55;2.40;;;;;;;;;;5023896;28;20025;-38
2021/08/16 13:52:26;;;;;;;5.78;2.22;;;;;;;;;;5017841;28;20025;-38
2021/08/16 13:54:52;;;;;;;5.25;2.28;;;;;;;;;;5009713;28;20029;-37
2021/08/16 13:57:17;;;;;;;6.65;2.50;;;;;;;;;;5023930;28;20025;-37
2021/08/16 13:59:42;;;;;;;4.65;2.10;;;;;;;;;;5023468;28;20435;-36
2021/08/16 14:02:08;;;;;;;5.15;2.20;;;;;;;;;;5023424;28;20029;-36
2021/08/16 14:04:33;;;;;;;5.70;2.30;;;;;;;;;;5023124;28;20112;-37
2021/08/16 14:06:58;;;;;;;4.65;2.10;;;;;;;;;;5023767;28;20129;-36
2021/08/16 14:09:24;;;;;;;5.03;2.30;;;;;;;;;;5023002;28;20026;-36
2021/08/16 14:11:49;;;;;;;6.30;2.22;;;;;;;;;;5016854;28;20025;-36
2021/08/16 14:14:15;;;;;;;5.88;2.38;;;;;;;;;;5023795;28;20240;-40
2021/08/16 14:16:41;;;;;;;5.20;2.00;;;;;;;;;;5014752;28;20025;-36
2021/08/16 14:19:07;;;;;;;5.82;2.67;;;;;;;;;;5023433;28;20037;-36
2021/08/16 14:21:33;;;;;;;4.63;2.22;;;;;;;;;;5007595;28;20167;-36
2021/08/16 14:23:58;;;;;;;5.32;2.22;;;;;;;;;;4999754;28;20026;-36
2021/08/16 14:26:23;;;;;;;5.07;2.28;;;;;;;;;;5023701;28;20025;-37
2021/08/16 14:28:50;;;;;;;5.68;2.33;;;;;;;;;;5021037;28;20025;-38
2021/08/16 14:31:16;;;;;;;5.90;2.38;;;;;;;;;;5021585;28;20033;-38
2021/08/16 14:33:42;;;;;;;5.43;2.40;;;;;;;;;;5010690;28;20391;-36
2021/08/16 14:36:07;;;;;;;6.18;2.50;;;;;;;;;;5011210;28;20033;-36
2021/08/16 14:38:32;;;;;;;4.43;2.38;;;;;;;;;;5023332;28;20377;-35